Time;durP1;ratioP1;P1;durP2;ratioP2;P2;SDS_P1;SDS_P2;PMS_P1;PMS_P2;Temp;Humidity;BMP_temperature;BMP_pressure;BME280_temperature;BME280_humidity;BME280_pressure;Samples;Min_cycle;Max_cycle;Signal;HPM_P1;HPM_P2
2023/12/19 00:00:07;;;;;;;23.77;3.45;;;12.20;99.90;;;;;;4838988;29;20037;-81
2023/12/19 00:02:33;;;;;;;23.15;4.32;;;12.20;99.90;;;;;;4838354;29;20513;-79
2023/12/19 00:04:59;;;;;;;19.45;3.35;;;12.20;99.90;;;;;;4841914;29;20124;-79
2023/12/19 00:07:25;;;;;;;24.52;3.97;;;12.20;99.90;;;;;;4843612;29;20108;-80
2023/12/19 00:09:51;;;;;;;28.30;5.03;;;12.20;99.90;;;;;;4841432;29;20144;-79
2023/12/19 00:12:16;;;;;;;20.92;3.88;;;12.20;99.90;;;;;;4843248;29;20098;-80
2023/12/19 00:14:42;;;;;;;14.50;2.70;;;12.20;99.90;;;;;;4843803;29;20041;-80
2023/12/19 00:17:08;;;;;;;25.52;4.20;;;12.20;99.90;;;;;;4841394;29;20064;-80
2023/12/19 00:19:33;;;;;;;20.00;3.35;;;12.20;99.90;;;;;;4845520;29;20384;-80
2023/12/19 00:21:59;;;;;;;27.58;3.95;;;12.10;99.90;;;;;;4847398;29;20062;-79
2023/12/19 00:24:24;;;;;;;24.60;3.92;;;12.20;99.90;;;;;;4842474;29;20049;-80
2023/12/19 00:26:50;;;;;;;30.65;4.75;;;12.20;99.90;;;;;;4842129;29;20073;-80
2023/12/19 00:29:16;;;;;;;19.77;3.65;;;12.10;99.90;;;;;;4843014;29;20029;-80
2023/12/19 00:31:42;;;;;;;26.98;4.18;;;12.20;99.90;;;;;;4845230;29;20065;-80
2023/12/19 00:34:08;;;;;;;24.10;3.85;;;12.20;99.90;;;;;;4845187;29;20034;-79
2023/12/19 00:36:34;;;;;;;30.70;5.30;;;12.20;99.90;;;;;;4847399;29;20369;-79
2023/12/19 00:38:59;;;;;;;26.80;4.00;;;12.20;99.90;;;;;;4840005;29;20494;-79
2023/12/19 00:41:25;;;;;;;25.75;3.67;;;12.20;99.90;;;;;;4842167;29;20531;-79
2023/12/19 00:43:51;;;;;;;24.00;3.95;;;12.20;99.90;;;;;;4841759;29;20601;-79
2023/12/19 00:46:16;;;;;;;21.05;4.15;;;12.20;99.90;;;;;;4843050;29;20044;-79
2023/12/19 00:48:42;;;;;;;24.50;4.35;;;12.20;99.90;;;;;;4843446;29;20041;-79
2023/12/19 00:51:10;;;;;;;18.88;4.22;;;12.20;99.90;;;;;;4847429;29;20129;-79
2023/12/19 00:53:36;;;;;;;27.48;4.18;;;12.20;99.90;;;;;;4844154;29;20500;-79
2023/12/19 00:56:07;;;;;;;23.65;4.60;;;12.20;99.90;;;;;;4840274;29;20121;-79
2023/12/19 00:58:33;;;;;;;21.30;4.13;;;12.20;99.90;;;;;;4844641;29;20097;-78
2023/12/19 01:00:58;;;;;;;20.90;4.05;;;12.10;99.90;;;;;;4842741;29;20034;-79
2023/12/19 01:03:24;;;;;;;22.00;3.53;;;12.10;99.90;;;;;;4842840;29;20037;-79
2023/12/19 01:05:49;;;;;;;14.82;3.40;;;12.10;99.90;;;;;;4843704;29;20112;-79
2023/12/19 01:08:15;;;;;;;21.92;4.70;;;12.10;99.90;;;;;;4842827;29;20058;-79
2023/12/19 01:10:41;;;;;;;25.55;4.32;;;12.00;99.90;;;;;;4842927;29;20101;-79
2023/12/19 01:13:06;;;;;;;24.63;4.63;;;12.00;99.90;;;;;;4839702;29;20041;-80
2023/12/19 01:15:32;;;;;;;28.88;4.95;;;12.00;99.90;;;;;;4841076;29;20678;-79
2023/12/19 01:17:58;;;;;;;19.58;4.43;;;12.00;99.90;;;;;;4848616;29;20042;-78
2023/12/19 01:20:23;;;;;;;24.27;3.97;;;12.00;99.90;;;;;;4845604;29;20064;-79
2023/12/19 01:22:49;;;;;;;15.55;3.30;;;12.00;99.90;;;;;;4839145;29;20033;-79
2023/12/19 01:25:15;;;;;;;23.80;3.70;;;12.00;99.90;;;;;;4847518;29;20045;-79
2023/12/19 01:27:40;;;;;;;13.75;3.10;;;12.00;99.90;;;;;;4845803;29;20109;-79
2023/12/19 01:30:07;;;;;;;25.75;4.50;;;12.10;99.90;;;;;;4847897;29;20026;-79
2023/12/19 01:32:32;;;;;;;27.38;4.22;;;12.10;99.90;;;;;;4847793;29;20550;-79
2023/12/19 01:34:58;;;;;;;21.75;3.90;;;12.10;99.90;;;;;;4844570;29;20045;-80
2023/12/19 01:37:23;;;;;;;19.45;4.35;;;12.10;99.90;;;;;;4844106;29;20057;-79
2023/12/19 01:39:49;;;;;;;20.02;4.10;;;12.10;99.90;;;;;;4843001;29;20466;-79
2023/12/19 01:42:14;;;;;;;20.05;4.50;;;12.10;99.90;;;;;;4843403;29;20180;-79
2023/12/19 01:44:40;;;;;;;20.55;3.58;;;12.10;99.90;;;;;;4846083;29;20497;-79
2023/12/19 01:47:06;;;;;;;26.23;4.15;;;12.10;99.90;;;;;;4849098;29;20037;-79
2023/12/19 01:49:31;;;;;;;22.75;3.65;;;12.00;99.90;;;;;;4842786;29;20038;-79
2023/12/19 01:51:58;;;;;;;19.70;3.88;;;12.10;99.90;;;;;;4835525;29;20030;-78
2023/12/19 01:54:24;;;;;;;15.85;3.30;;;12.00;99.90;;;;;;4847285;29;20033;-79
2023/12/19 01:56:50;;;;;;;21.42;3.58;;;12.00;99.90;;;;;;4844286;29;20430;-79
2023/12/19 01:59:16;;;;;;;19.42;3.17;;;12.00;99.90;;;;;;4849875;29;20043;-79
2023/12/19 02:01:43;;;;;;;20.70;3.22;;;12.10;99.90;;;;;;4844267;29;20185;-79
2023/12/19 02:04:10;;;;;;;23.65;5.03;;;12.10;99.90;;;;;;4842836;29;20034;-79
2023/12/19 02:06:35;;;;;;;20.08;3.38;;;12.10;99.90;;;;;;4843285;29;21775;-79
2023/12/19 02:09:02;;;;;;;22.33;3.53;;;12.10;99.90;;;;;;4844121;29;20085;-79
2023/12/19 02:11:28;;;;;;;23.77;3.38;;;12.10;99.90;;;;;;4846977;29;20510;-79
2023/12/19 02:13:56;;;;;;;26.42;3.72;;;12.10;99.90;;;;;;4847532;29;20080;-79
2023/12/19 02:16:24;;;;;;;21.60;3.78;;;12.10;99.90;;;;;;4845688;29;20417;-80
2023/12/19 02:19:06;;;;;;;23.20;4.05;;;12.10;99.90;;;;;;4846203;29;20125;-79
2023/12/19 02:21:32;;;;;;;15.05;3.80;;;12.10;99.90;;;;;;4847443;29;20053;-79
2023/12/19 02:23:58;;;;;;;13.88;3.78;;;12.10;99.90;;;;;;4846267;29;20090;-80
2023/12/19 02:26:24;;;;;;;22.95;3.90;;;12.10;99.90;;;;;;4844580;29;20045;-80
2023/12/19 02:28:52;;;;;;;26.90;4.80;;;12.10;99.90;;;;;;4846860;29;20051;-80
2023/12/19 02:31:19;;;;;;;15.98;4.07;;;12.10;99.90;;;;;;4848866;29;20041;-80
2023/12/19 02:33:45;;;;;;;14.57;3.83;;;12.10;99.90;;;;;;4844008;29;20022;-79
2023/12/19 02:36:11;;;;;;;22.45;3.88;;;12.10;99.90;;;;;;4844586;29;20522;-80
2023/12/19 02:38:37;;;;;;;22.50;4.30;;;12.10;99.90;;;;;;4848032;29;20029;-79
2023/12/19 02:41:03;;;;;;;26.27;4.35;;;12.10;99.90;;;;;;4841827;29;20033;-79
2023/12/19 02:43:29;;;;;;;17.30;4.07;;;12.10;99.90;;;;;;4847281;29;20033;-79
2023/12/19 02:45:54;;;;;;;23.92;5.32;;;12.10;99.90;;;;;;4843017;29;20041;-80
2023/12/19 02:48:20;;;;;;;17.75;4.40;;;12.00;99.90;;;;;;4841988;29;20033;-79
2023/12/19 02:50:46;;;;;;;27.35;5.00;;;12.10;99.90;;;;;;4849186;29;20056;-80
2023/12/19 02:53:11;;;;;;;21.30;4.53;;;12.00;99.90;;;;;;4844613;29;20514;-79
2023/12/19 02:55:37;;;;;;;31.17;5.25;;;12.00;99.90;;;;;;4842457;29;20667;-79
2023/12/19 02:58:02;;;;;;;19.65;4.00;;;12.00;99.90;;;;;;4840731;29;20037;-80
2023/12/19 03:00:28;;;;;;;23.15;4.55;;;12.00;99.90;;;;;;4844932;29;20052;-80
2023/12/19 03:02:58;;;;;;;18.35;4.20;;;12.00;99.90;;;;;;4839855;29;20479;-80
2023/12/19 03:05:24;;;;;;;23.95;3.53;;;12.00;99.90;;;;;;4839730;29;20033;-80
2023/12/19 03:07:50;;;;;;;23.10;3.75;;;12.00;99.90;;;;;;4844186;29;20037;-82
2023/12/19 03:10:16;;;;;;;13.00;2.83;;;12.00;99.90;;;;;;4848560;29;20405;-84
2023/12/19 03:12:41;;;;;;;17.98;4.10;;;12.00;99.90;;;;;;4844076;29;20056;-85
2023/12/19 03:15:08;;;;;;;12.10;3.00;;;12.00;99.90;;;;;;4845452;29;20033;-84
2023/12/19 03:17:33;;;;;;;14.20;2.80;;;11.90;99.90;;;;;;4842872;29;20061;-83
2023/12/19 03:19:59;;;;;;;10.93;2.88;;;11.90;99.90;;;;;;4846981;29;20080;-83
2023/12/19 03:22:25;;;;;;;13.38;3.88;;;11.90;99.90;;;;;;4844334;29;20029;-83
2023/12/19 03:24:51;;;;;;;15.07;3.08;;;11.90;99.90;;;;;;4851760;29;20029;-83
2023/12/19 03:27:16;;;;;;;9.75;2.10;;;11.90;99.90;;;;;;4844486;29;20038;-83
2023/12/19 03:29:42;;;;;;;7.32;2.42;;;11.90;99.90;;;;;;4842407;29;20526;-82
2023/12/19 03:32:08;;;;;;;6.57;2.22;;;11.90;99.90;;;;;;4842371;29;20609;-83
2023/12/19 03:34:37;;;;;;;8.98;2.22;;;11.90;99.90;;;;;;4840612;29;20048;-82
2023/12/19 03:37:03;;;;;;;13.27;2.10;;;11.90;99.90;;;;;;4847420;29;20040;-83
2023/12/19 03:39:29;;;;;;;7.70;1.90;;;11.90;99.90;;;;;;4845815;29;20030;-83
2023/12/19 03:41:54;;;;;;;8.55;2.15;;;11.90;99.90;;;;;;4844874;29;20452;-83
2023/12/19 03:44:20;;;;;;;5.75;1.98;;;11.90;99.90;;;;;;4847802;29;20029;-82
2023/12/19 03:46:46;;;;;;;3.88;1.58;;;11.90;99.90;;;;;;4844872;29;20038;-83
2023/12/19 03:49:12;;;;;;;6.50;1.85;;;11.90;99.90;;;;;;4848199;29;20280;-84
2023/12/19 03:51:38;;;;;;;9.85;2.10;;;11.90;99.90;;;;;;4843799;29;20037;-84
2023/12/19 03:54:03;;;;;;;4.82;1.88;;;11.90;99.90;;;;;;4846344;29;20034;-84
2023/12/19 03:56:29;;;;;;;8.25;2.50;;;11.90;99.90;;;;;;4844142;29;20034;-84
2023/12/19 03:58:55;;;;;;;9.88;2.72;;;12.00;99.90;;;;;;4846080;29;20045;-84
2023/12/19 04:01:23;;;;;;;11.05;2.67;;;12.00;99.90;;;;;;4840561;29;20037;-84
2023/12/19 04:03:49;;;;;;;12.82;3.25;;;12.00;99.90;;;;;;4841589;29;20030;-83
2023/12/19 04:06:14;;;;;;;11.73;3.55;;;12.00;99.90;;;;;;4843081;29;20041;-83
2023/12/19 04:08:40;;;;;;;13.05;3.85;;;12.00;99.90;;;;;;4844568;29;20056;-82
2023/12/19 04:11:06;;;;;;;14.55;3.40;;;12.00;99.90;;;;;;4845412;29;20029;-82
2023/12/19 04:13:31;;;;;;;12.73;4.50;;;12.00;99.90;;;;;;4840312;29;20933;-81
2023/12/19 04:15:57;;;;;;;16.45;4.25;;;12.00;99.90;;;;;;4840762;29;20041;-81
2023/12/19 04:18:23;;;;;;;15.02;4.30;;;12.00;99.90;;;;;;4841786;29;20041;-82
2023/12/19 04:20:48;;;;;;;14.10;3.88;;;12.00;99.90;;;;;;4844370;29;20522;-81
2023/12/19 04:23:14;;;;;;;14.40;4.00;;;12.00;99.90;;;;;;4848779;29;20037;-81
2023/12/19 04:25:39;;;;;;;12.95;4.30;;;12.00;99.90;;;;;;4847441;29;20410;-81
2023/12/19 04:28:05;;;;;;;11.63;3.83;;;12.00;99.90;;;;;;4842760;29;20042;-81
2023/12/19 04:30:31;;;;;;;16.50;4.22;;;12.00;99.90;;;;;;4852180;29;20040;-81
2023/12/19 04:32:56;;;;;;;18.35;5.47;;;12.00;99.90;;;;;;4841324;29;20535;-81
2023/12/19 04:35:22;;;;;;;11.65;3.53;;;12.00;99.90;;;;;;4844494;29;20432;-81
2023/12/19 04:37:47;;;;;;;11.73;3.65;;;12.00;99.90;;;;;;4845130;29;20038;-81
2023/12/19 04:40:13;;;;;;;11.93;3.67;;;12.00;99.90;;;;;;4851515;29;20033;-82
2023/12/19 04:42:39;;;;;;;13.63;3.50;;;12.00;99.90;;;;;;4842609;29;20033;-82
2023/12/19 04:45:05;;;;;;;10.70;3.33;;;12.00;99.90;;;;;;4843734;29;20538;-82
2023/12/19 04:47:31;;;;;;;7.30;3.63;;;12.00;99.90;;;;;;4845747;29;20090;-83
2023/12/19 04:49:57;;;;;;;11.82;3.95;;;12.00;99.90;;;;;;4847647;29;20061;-83
2023/12/19 04:52:22;;;;;;;9.18;2.90;;;12.00;99.90;;;;;;4844274;29;20030;-83
2023/12/19 04:54:48;;;;;;;6.55;2.88;;;11.90;99.90;;;;;;4841648;29;20030;-83
2023/12/19 04:57:14;;;;;;;12.18;2.92;;;11.90;99.90;;;;;;4845080;29;20074;-83
2023/12/19 04:59:39;;;;;;;5.30;2.80;;;12.00;99.90;;;;;;4843415;29;20083;-83
2023/12/19 05:02:06;;;;;;;8.55;2.60;;;11.90;99.90;;;;;;4843805;29;20618;-83
2023/12/19 05:04:32;;;;;;;11.65;2.50;;;12.00;99.90;;;;;;4841541;29;20538;-83
2023/12/19 05:06:57;;;;;;;7.28;2.55;;;11.90;99.90;;;;;;4846015;29;20047;-83
2023/12/19 05:09:25;;;;;;;9.43;2.67;;;12.00;99.90;;;;;;4849546;29;20391;-83
2023/12/19 05:11:51;;;;;;;9.82;2.80;;;12.00;99.90;;;;;;4848441;29;20038;-83
2023/12/19 05:14:16;;;;;;;10.55;3.20;;;11.90;99.90;;;;;;4845919;29;20340;-83
2023/12/19 05:16:42;;;;;;;9.27;3.22;;;11.90;99.90;;;;;;4847582;29;20044;-84
2023/12/19 05:19:07;;;;;;;6.57;2.45;;;11.90;99.90;;;;;;4848983;29;20040;-84
2023/12/19 05:21:38;;;;;;;7.70;3.38;;;11.90;99.90;;;;;;4849783;29;20044;-85
2023/12/19 05:24:04;;;;;;;10.73;3.40;;;12.00;99.90;;;;;;4848336;29;20093;-85
2023/12/19 05:26:30;;;;;;;7.18;3.35;;;11.90;99.90;;;;;;4846267;29;20038;-84
2023/12/19 05:28:55;;;;;;;9.57;3.13;;;11.90;99.90;;;;;;4843686;29;20049;-85
2023/12/19 05:31:22;;;;;;;7.57;3.00;;;11.90;99.90;;;;;;4844144;29;20033;-85
2023/12/19 05:33:47;;;;;;;6.65;3.22;;;11.90;99.90;;;;;;4845643;29;20037;-85
2023/12/19 05:36:13;;;;;;;11.25;3.22;;;11.90;99.90;;;;;;4850699;29;20034;-86
2023/12/19 05:38:39;;;;;;;10.20;2.88;;;11.90;99.90;;;;;;4847352;29;20029;-85
2023/12/19 05:41:05;;;;;;;9.68;2.90;;;11.90;99.90;;;;;;4843496;29;20044;-85
2023/12/19 05:43:31;;;;;;;9.02;2.70;;;11.90;99.90;;;;;;4848028;29;20058;-85
2023/12/19 05:45:57;;;;;;;9.63;2.67;;;11.90;99.90;;;;;;4847827;29;20094;-85
2023/12/19 05:48:23;;;;;;;6.22;2.90;;;11.90;99.90;;;;;;4847539;29;20443;-85
2023/12/19 05:50:49;;;;;;;5.07;2.65;;;11.90;99.90;;;;;;4855676;29;20044;-84
2023/12/19 05:53:15;;;;;;;7.30;2.80;;;11.90;99.90;;;;;;4848208;29;20505;-83
2023/12/19 05:55:43;;;;;;;7.68;2.10;;;11.90;99.90;;;;;;4851755;29;20579;-84
2023/12/19 05:58:09;;;;;;;4.72;2.40;;;11.80;99.90;;;;;;4848465;29;20533;-84
2023/12/19 06:00:36;;;;;;;8.18;2.22;;;11.80;99.90;;;;;;4846266;29;20048;-86
2023/12/19 06:03:01;;;;;;;3.90;1.70;;;11.90;99.90;;;;;;4850609;29;20025;-83
2023/12/19 06:05:27;;;;;;;5.28;1.80;;;11.90;99.90;;;;;;4847513;29;20428;-83
2023/12/19 06:07:53;;;;;;;8.57;2.55;;;11.80;99.90;;;;;;4850413;29;20478;-85
2023/12/19 06:10:18;;;;;;;5.68;1.90;;;11.80;99.90;;;;;;4851560;29;20129;-84
2023/12/19 06:12:44;;;;;;;4.80;2.00;;;11.80;99.90;;;;;;4845776;29;20510;-84
2023/12/19 06:15:13;;;;;;;5.20;2.17;;;11.80;99.90;;;;;;4845161;29;20032;-84
2023/12/19 06:17:41;;;;;;;4.18;2.10;;;11.80;99.90;;;;;;4845758;29;20341;-83
2023/12/19 06:20:10;;;;;;;7.32;2.28;;;11.80;99.90;;;;;;4849893;29;20243;-84
2023/12/19 06:22:38;;;;;;;6.43;2.50;;;11.80;99.90;;;;;;4846572;29;20042;-85
2023/12/19 06:26:02;;;;;;;7.72;2.70;;;11.80;99.90;;;;;;4848023;29;20080;-84
2023/12/19 06:28:49;;;;;;;6.72;2.53;;;11.80;99.90;;;;;;4815931;29;20046;-84
2023/12/19 06:31:14;;;;;;;8.13;2.40;;;11.90;99.90;;;;;;4841446;29;20140;-84
2023/12/19 06:33:40;;;;;;;4.90;2.60;;;11.90;99.90;;;;;;4845848;29;20065;-85
2023/12/19 06:36:07;;;;;;;3.60;1.98;;;11.90;99.90;;;;;;4846316;29;20052;-82
2023/12/19 06:38:32;;;;;;;6.68;2.00;;;11.90;99.90;;;;;;4844637;29;20105;-82
2023/12/19 06:40:58;;;;;;;6.78;2.42;;;11.90;99.90;;;;;;4845309;29;20482;-80
2023/12/19 06:43:24;;;;;;;4.25;2.30;;;12.00;99.90;;;;;;4847701;29;20654;-80
2023/12/19 06:45:49;;;;;;;2.83;1.77;;;12.00;99.90;;;;;;4840417;29;20037;-80
2023/12/19 06:48:16;;;;;;;6.65;2.30;;;12.00;99.90;;;;;;4843873;29;20125;-80
2023/12/19 06:50:42;;;;;;;9.32;1.88;;;12.00;99.90;;;;;;4843555;29;20087;-80
2023/12/19 06:53:08;;;;;;;4.65;2.10;;;12.00;99.90;;;;;;4845616;29;20120;-81
2023/12/19 06:55:33;;;;;;;3.17;1.90;;;12.00;99.90;;;;;;4844418;29;20021;-81
2023/12/19 06:57:59;;;;;;;6.25;2.20;;;12.10;99.90;;;;;;4848235;29;20052;-81
2023/12/19 07:00:24;;;;;;;4.30;1.70;;;12.10;99.90;;;;;;4842578;29;20818;-81
2023/12/19 07:02:50;;;;;;;3.83;1.70;;;12.10;99.90;;;;;;4837180;29;20094;-82
2023/12/19 07:05:16;;;;;;;4.88;2.30;;;12.00;99.90;;;;;;4844374;29;20558;-82
2023/12/19 07:07:42;;;;;;;2.85;1.80;;;12.10;99.90;;;;;;4846243;29;20041;-81
2023/12/19 07:10:08;;;;;;;6.03;1.88;;;12.10;99.90;;;;;;4845853;29;20114;-81
2023/12/19 07:12:34;;;;;;;3.75;1.48;;;12.00;99.90;;;;;;4844615;29;20042;-81
2023/12/19 07:15:00;;;;;;;3.65;1.90;;;12.10;99.90;;;;;;4842617;29;20041;-81
2023/12/19 07:17:25;;;;;;;4.28;1.80;;;12.00;99.90;;;;;;4841827;29;20046;-82
2023/12/19 07:19:51;;;;;;;6.65;1.65;;;12.10;99.90;;;;;;4846202;29;20430;-82
2023/12/19 07:22:16;;;;;;;2.92;1.60;;;12.10;99.90;;;;;;4842839;29;20415;-81
2023/12/19 07:24:42;;;;;;;3.83;1.75;;;12.10;99.90;;;;;;4842886;29;20333;-85
2023/12/19 07:27:08;;;;;;;5.00;1.80;;;12.10;99.90;;;;;;4842417;29;20042;-79
2023/12/19 07:29:37;;;;;;;4.10;1.80;;;12.10;99.90;;;;;;4843465;29;20121;-80
2023/12/19 07:32:02;;;;;;;3.65;1.75;;;12.10;99.90;;;;;;4840977;29;20089;-79
2023/12/19 07:34:28;;;;;;;4.15;1.60;;;12.10;99.90;;;;;;4846251;29;20459;-80
2023/12/19 07:36:54;;;;;;;3.50;2.00;;;12.10;99.90;;;;;;4844134;29;20032;-80
2023/12/19 07:39:19;;;;;;;3.70;1.98;;;12.10;99.90;;;;;;4839805;29;20030;-80
2023/12/19 07:41:45;;;;;;;3.45;1.52;;;12.10;99.90;;;;;;4839652;29;20049;-82
2023/12/19 07:44:11;;;;;;;5.03;1.60;;;12.10;99.90;;;;;;4838404;29;20046;-79
2023/12/19 07:46:41;;;;;;;1.98;1.20;;;12.10;99.90;;;;;;4836126;29;20554;-81
2023/12/19 07:49:08;;;;;;;1.80;1.20;;;12.10;99.90;;;;;;4837329;29;20041;-80
2023/12/19 07:51:34;;;;;;;1.98;1.30;;;12.10;99.90;;;;;;4843137;29;20056;-80
2023/12/19 07:53:59;;;;;;;3.58;1.42;;;12.10;99.90;;;;;;4839866;29;20129;-81
2023/12/19 07:56:25;;;;;;;4.18;1.33;;;12.10;99.90;;;;;;4841094;29;20037;-81
2023/12/19 07:58:51;;;;;;;3.95;1.42;;;12.20;99.90;;;;;;4845957;29;20482;-81
2023/12/19 08:01:17;;;;;;;3.15;1.30;;;12.10;99.90;;;;;;4843527;29;20422;-80
2023/12/19 08:03:44;;;;;;;8.27;1.67;;;12.10;99.90;;;;;;4847203;29;20033;-80
2023/12/19 08:06:10;;;;;;;4.60;1.30;;;12.10;99.90;;;;;;4840041;29;20033;-80
2023/12/19 08:08:37;;;;;;;6.20;1.70;;;12.20;99.90;;;;;;4847699;29;20041;-80
2023/12/19 08:11:03;;;;;;;5.20;2.05;;;12.20;99.90;;;;;;4849890;29;20112;-81
2023/12/19 08:13:28;;;;;;;5.28;1.55;;;12.20;99.90;;;;;;4838030;29;20551;-79
2023/12/19 08:15:54;;;;;;;5.15;1.80;;;12.20;99.90;;;;;;4838219;29;20030;-80
2023/12/19 08:18:20;;;;;;;3.20;1.45;;;12.20;99.90;;;;;;4842114;29;20411;-81
2023/12/19 08:20:46;;;;;;;5.30;1.92;;;12.20;99.90;;;;;;4843052;29;20021;-81
2023/12/19 08:23:12;;;;;;;5.38;1.80;;;12.20;99.90;;;;;;4844235;29;20033;-81
2023/12/19 08:25:38;;;;;;;4.18;2.00;;;12.20;99.90;;;;;;4837601;29;20042;-81
2023/12/19 08:28:05;;;;;;;4.38;1.73;;;12.20;99.90;;;;;;4839466;29;20046;-81
2023/12/19 08:30:31;;;;;;;5.47;2.05;;;12.20;99.90;;;;;;4840832;29;20065;-81
2023/12/19 08:32:57;;;;;;;7.38;1.92;;;12.20;99.90;;;;;;4839686;29;20616;-81
2023/12/19 08:35:23;;;;;;;5.97;2.05;;;12.20;99.90;;;;;;4836816;29;20060;-82
2023/12/19 08:37:49;;;;;;;9.55;2.20;;;12.20;99.90;;;;;;4840360;29;20053;-81
2023/12/19 08:40:15;;;;;;;3.33;2.22;;;12.20;99.90;;;;;;4841144;29;20125;-81
2023/12/19 08:42:43;;;;;;;4.35;2.15;;;12.20;99.90;;;;;;4841953;29;20091;-83
2023/12/19 08:45:18;;;;;;;4.65;1.60;;;12.20;99.90;;;;;;4842045;29;20399;-81
2023/12/19 08:47:44;;;;;;;7.32;2.38;;;12.20;99.90;;;;;;4843942;29;20065;-82
2023/12/19 08:50:12;;;;;;;3.80;1.60;;;12.20;99.90;;;;;;4843972;29;20183;-82
2023/12/19 08:52:40;;;;;;;2.65;1.52;;;12.20;99.90;;;;;;4839021;29;20180;-81
2023/12/19 08:55:07;;;;;;;3.22;1.55;;;12.20;99.90;;;;;;4835883;29;20109;-80
2023/12/19 08:57:35;;;;;;;4.03;1.70;;;12.20;99.90;;;;;;4845804;29;20041;-88
2023/12/19 09:00:03;;;;;;;6.13;2.17;;;12.20;99.90;;;;;;4845936;29;20041;-83
2023/12/19 09:02:28;;;;;;;5.32;1.50;;;12.20;99.90;;;;;;4837393;29;20041;-84
2023/12/19 09:04:54;;;;;;;4.70;1.50;;;12.20;99.90;;;;;;4837538;29;20056;-82
2023/12/19 09:07:20;;;;;;;3.30;1.40;;;12.20;99.90;;;;;;4837736;29;20052;-81
2023/12/19 09:09:47;;;;;;;3.70;1.58;;;12.20;99.90;;;;;;4838828;29;20383;-81
2023/12/19 09:12:12;;;;;;;3.90;1.60;;;12.20;99.90;;;;;;4839162;29;20037;-81
2023/12/19 09:14:38;;;;;;;3.03;1.40;;;12.20;99.90;;;;;;4834398;29;20426;-81
2023/12/19 09:17:03;;;;;;;4.10;1.45;;;12.20;99.90;;;;;;4840196;29;20068;-81
2023/12/19 09:19:30;;;;;;;4.25;1.45;;;12.20;99.90;;;;;;4842713;29;20113;-81
2023/12/19 09:21:57;;;;;;;3.92;1.27;;;12.20;99.90;;;;;;4836852;29;20040;-81
2023/12/19 09:24:23;;;;;;;3.15;1.38;;;12.20;99.90;;;;;;4841921;29;20482;-80
2023/12/19 09:26:49;;;;;;;2.78;1.20;;;12.20;99.90;;;;;;4839265;29;20033;-80
2023/12/19 09:29:15;;;;;;;4.30;1.23;;;12.20;99.90;;;;;;4845852;29;20041;-82
2023/12/19 09:31:45;;;;;;;4.45;1.23;;;12.20;99.90;;;;;;4840633;29;20136;-82
2023/12/19 09:34:10;;;;;;;5.10;1.67;;;12.20;99.90;;;;;;4842269;29;20556;-82
2023/12/19 09:36:36;;;;;;;2.45;1.80;;;12.20;99.90;;;;;;4843146;29;20127;-82
2023/12/19 09:39:03;;;;;;;3.15;1.50;;;12.20;99.90;;;;;;4844250;29;20034;-82
2023/12/19 09:41:29;;;;;;;4.10;1.35;;;12.20;99.90;;;;;;4843496;29;20136;-84
2023/12/19 09:43:55;;;;;;;3.65;1.42;;;12.30;99.90;;;;;;4839933;29;20097;-82
2023/12/19 09:46:24;;;;;;;4.00;1.35;;;12.30;99.90;;;;;;4838311;29;20253;-79
2023/12/19 09:48:50;;;;;;;4.15;1.33;;;12.30;99.90;;;;;;4840535;29;20053;-80
2023/12/19 09:51:26;;;;;;;2.55;1.58;;;12.30;99.90;;;;;;4840595;29;20128;-79
2023/12/19 09:53:54;;;;;;;4.68;1.10;;;12.20;99.90;;;;;;4835318;29;20502;-81
2023/12/19 09:56:22;;;;;;;3.70;1.05;;;12.30;99.90;;;;;;4840526;29;20057;-79
2023/12/19 09:58:49;;;;;;;2.38;1.10;;;12.30;99.90;;;;;;4840398;29;20033;-83
2023/12/19 10:01:17;;;;;;;3.22;1.40;;;12.20;99.90;;;;;;4835755;29;20149;-82
2023/12/19 10:03:43;;;;;;;1.98;0.98;;;12.30;99.90;;;;;;4840587;29;20050;-79
2023/12/19 10:06:09;;;;;;;3.08;1.00;;;12.20;99.90;;;;;;4840664;29;20058;-82
2023/12/19 10:08:42;;;;;;;3.45;0.93;;;12.30;99.90;;;;;;4839818;29;20616;-81
2023/12/19 10:11:08;;;;;;;4.18;1.13;;;12.30;99.90;;;;;;4839777;29;20032;-80
2023/12/19 10:13:35;;;;;;;1.40;1.08;;;12.20;99.90;;;;;;4841305;29;20057;-82
2023/12/19 10:16:06;;;;;;;2.28;1.15;;;12.20;99.90;;;;;;4842537;29;20148;-85
2023/12/19 10:18:33;;;;;;;3.85;1.35;;;12.30;99.90;;;;;;4839987;29;20029;-81
2023/12/19 10:21:14;;;;;;;6.75;1.75;;;12.20;99.90;;;;;;4838534;29;20158;-80
2023/12/19 10:23:41;;;;;;;3.45;1.25;;;12.30;99.90;;;;;;4841417;29;20544;-82
2023/12/19 10:26:07;;;;;;;2.88;1.00;;;12.30;99.90;;;;;;4842159;29;20049;-83
2023/12/19 10:28:34;;;;;;;1.40;1.00;;;12.20;99.90;;;;;;4841557;29;20026;-79
2023/12/19 10:31:11;;;;;;;5.25;2.05;;;12.30;99.90;;;;;;4834031;29;20843;-80
2023/12/19 10:33:55;;;;;;;2.65;1.17;;;12.30;99.90;;;;;;4839333;29;20053;-84
2023/12/19 10:36:30;;;;;;;11.68;2.53;;;12.20;99.90;;;;;;4844132;29;20138;-86
2023/12/19 10:38:59;;;;;;;1.88;1.33;;;12.30;99.90;;;;;;4843752;29;20169;-78
2023/12/19 10:41:27;;;;;;;2.25;1.17;;;12.30;99.90;;;;;;4842484;29;20124;-78
2023/12/19 10:43:56;;;;;;;3.35;1.10;;;12.30;99.90;;;;;;4835083;29;20038;-77
2023/12/19 10:46:25;;;;;;;2.17;0.82;;;12.30;99.90;;;;;;4838177;29;20050;-78
2023/12/19 10:48:54;;;;;;;7.13;1.35;;;12.40;99.90;;;;;;4841427;29;20041;-79
2023/12/19 10:51:39;;;;;;;1.48;0.90;;;12.40;99.90;;;;;;4837282;29;20034;-80
2023/12/19 10:54:24;;;;;;;1.27;1.08;;;12.40;99.90;;;;;;4830102;29;20398;-79
2023/12/19 10:57:17;;;;;;;2.00;1.10;;;12.40;99.90;;;;;;4830209;29;20046;-79
2023/12/19 10:59:53;;;;;;;2.05;0.75;;;12.40;99.90;;;;;;4830866;29;20041;-80
2023/12/19 11:02:21;;;;;;;3.17;1.30;;;12.40;99.90;;;;;;4841874;29;20069;-79
2023/12/19 11:04:54;;;;;;;2.70;0.88;;;12.50;99.90;;;;;;4840749;29;20066;-81
2023/12/19 11:07:22;;;;;;;1.45;0.95;;;12.40;99.90;;;;;;4833360;29;20037;-79
2023/12/19 11:09:53;;;;;;;4.78;1.00;;;12.40;99.90;;;;;;4828793;29;20146;-82
2023/12/19 11:12:19;;;;;;;2.20;0.82;;;12.50;99.90;;;;;;4829664;29;20061;-80
2023/12/19 11:14:45;;;;;;;2.97;0.90;;;12.50;99.90;;;;;;4828750;29;20029;-78
2023/12/19 11:17:38;;;;;;;2.08;0.88;;;12.50;99.90;;;;;;4824470;29;20037;-84
2023/12/19 11:20:28;;;;;;;1.95;0.90;;;12.50;99.90;;;;;;4830945;29;20456;-84
2023/12/19 11:23:14;;;;;;;1.67;0.63;;;12.50;99.90;;;;;;4828690;29;20637;-85
2023/12/19 11:25:47;;;;;;;2.15;0.60;;;12.50;99.90;;;;;;4834038;29;20100;-83
2023/12/19 11:28:14;;;;;;;0.30;0.30;;;12.30;99.90;;;;;;4834181;29;20037;-82
2023/12/19 11:30:41;;;;;;;5.97;0.70;;;11.90;99.90;;;;;;4831343;29;20386;-82
2023/12/19 11:33:08;;;;;;;7.38;1.05;;;11.80;99.90;;;;;;4833047;29;20022;-78
2023/12/19 11:35:34;;;;;;;2.13;0.90;;;11.80;99.90;;;;;;4833172;29;20571;-82
2023/12/19 11:38:24;;;;;;;2.78;0.90;;;11.60;99.90;;;;;;4829687;29;20095;-83
2023/12/19 11:40:53;;;;;;;0.93;0.73;;;11.60;99.90;;;;;;4830946;29;20125;-80
2023/12/19 11:43:38;;;;;;;3.38;0.93;;;11.40;99.90;;;;;;4829159;29;20033;-81
2023/12/19 11:46:07;;;;;;;1.95;0.70;;;11.60;99.90;;;;;;4827841;29;20137;-88
2023/12/19 11:48:44;;;;;;;1.25;0.60;;;11.60;99.90;;;;;;4838155;29;20112;-84
2023/12/19 11:51:11;;;;;;;4.13;0.77;;;11.60;99.90;;;;;;4835924;29;20034;-82
2023/12/19 11:53:38;;;;;;;1.08;0.50;;;11.60;99.90;;;;;;4835847;29;20093;-81
2023/12/19 11:56:05;;;;;;;0.68;0.60;;;11.60;99.90;;;;;;4832862;29;20049;-84
2023/12/19 11:58:32;;;;;;;1.33;0.60;;;11.70;99.90;;;;;;4829938;29;20172;-83
2023/12/19 12:00:58;;;;;;;1.95;0.50;;;11.90;99.90;;;;;;4817909;29;20034;-83
2023/12/19 12:03:24;;;;;;;1.80;0.70;;;11.80;99.90;;;;;;4836643;29;20042;-91
2023/12/19 12:05:51;;;;;;;2.10;0.60;;;12.00;99.90;;;;;;4842458;29;20034;-89
2023/12/19 12:08:34;;;;;;;1.67;0.80;;;12.10;99.90;;;;;;4843694;29;20565;-90
2023/12/19 12:11:02;;;;;;;3.08;1.10;;;12.10;99.90;;;;;;4842427;29;20128;-88
2023/12/19 12:13:38;;;;;;;3.50;0.80;;;12.50;99.90;;;;;;4838818;29;20129;-93
2023/12/19 12:16:07;;;;;;;3.90;0.90;;;12.50;99.90;;;;;;4839724;29;20293;-89
2023/12/19 12:18:50;;;;;;;0.55;0.50;;;12.30;99.90;;;;;;4846106;29;20068;-91
2023/12/19 12:21:17;;;;;;;2.13;0.77;;;12.20;99.90;;;;;;4837685;29;20033;-92
2023/12/19 12:23:53;;;;;;;1.15;0.60;;;11.90;99.90;;;;;;4840907;29;20052;-91
2023/12/19 12:26:19;;;;;;;0.85;0.50;;;11.70;99.90;;;;;;4841208;29;20037;-90
2023/12/19 12:28:49;;;;;;;1.27;0.52;;;11.80;99.90;;;;;;4834467;29;20037;-88
2023/12/19 12:31:15;;;;;;;0.88;0.60;;;11.70;99.90;;;;;;4837436;29;20306;-88
2023/12/19 12:33:41;;;;;;;1.58;0.70;;;11.60;99.90;;;;;;4837240;29;20048;-89
2023/12/19 12:36:11;;;;;;;1.00;0.70;;;11.50;99.90;;;;;;4837528;29;20486;-85
2023/12/19 12:38:37;;;;;;;0.60;0.60;;;11.60;99.90;;;;;;4835385;29;20061;-86
2023/12/19 12:41:04;;;;;;;1.20;0.80;;;11.60;99.90;;;;;;4833258;29;20390;-83
2023/12/19 12:43:34;;;;;;;1.33;0.60;;;11.50;99.90;;;;;;4838284;29;20036;-89